Eger, Hungary
Current Conditions -  °F | °C
As of 10:15 PM on Saturday 25 Oct 2014 (Local Time) from LHSN Reporting Station
Broken Clouds Broken Clouds  
Wind Chill: 42°   Ceiling: 3000
Heat Index: 45°   Visibility: 6mi
Dew Point: 41°   Wind: 4mph
Humidity: 87%   Direction: 260°W
Pressure: 30.3"   Gusts: NA
Location:  47.9°N, 20.38°E
Report Text: LHSN 252015Z 26002MPS 9999 BKN030 07/05 Q1026 NOSIG RMK BLU
Loading
Personal Weather Stations






























Interactive Weather Map
Tropical Storm Tracking
New forecast layout! Learn more

10-Day Weather Forecast

Advertisements
Track Severe Weather on mobile